Time;durP1;ratioP1;P1;durP2;ratioP2;P2;SDS_P1;SDS_P2;PMS_P1;PMS_P2;Temp;Humidity;BMP_temperature;BMP_pressure;BME280_temperature;BME280_humidity;BME280_pressure;Samples;Min_cycle;Max_cycle;Signal;HPM_P1;HPM_P2
2021/01/27 00:00:37;;;;;;;8.38;4.45;;;;;;;-0.64;75.51;92285.69;5050793;28;20036;-47
2021/01/27 00:03:03;;;;;;;6.80;4.13;;;;;;;-0.82;75.40;92273.50;5050752;28;20111;-45
2021/01/27 00:05:31;;;;;;;6.22;3.47;;;;;;;-0.68;75.21;92287.19;5050821;28;20040;-47
2021/01/27 00:07:57;;;;;;;4.40;3.60;;;;;;;-0.67;75.59;92286.69;5050567;28;20497;-47
2021/01/27 00:10:23;;;;;;;9.52;4.75;;;;;;;-0.63;75.08;92270.91;5051105;28;20036;-47
2021/01/27 00:12:49;;;;;;;6.57;3.63;;;;;;;-0.58;75.13;92282.91;5050702;28;20060;-57
2021/01/27 00:15:18;;;;;;;4.90;2.90;;;;;;;-0.64;75.60;92282.97;5050486;28;20523;-48
2021/01/27 00:17:43;;;;;;;7.95;4.28;;;;;;;-0.53;75.40;92282.88;5050623;28;20469;-47
2021/01/27 00:20:12;;;;;;;5.10;2.92;;;;;;;-0.80;75.45;92257.47;5050555;28;20039;-46
2021/01/27 00:22:37;;;;;;;5.82;3.28;;;;;;;-0.60;75.91;92269.13;5050672;28;20505;-43
2021/01/27 00:25:04;;;;;;;4.18;2.95;;;;;;;-0.56;75.85;92286.59;5050563;28;20112;-45
2021/01/27 00:27:30;;;;;;;5.03;2.83;;;;;;;-0.60;75.53;92272.59;5050413;28;20097;-46
2021/01/27 00:29:56;;;;;;;7.30;4.90;;;;;;;-0.68;75.97;92265.50;5050322;28;20025;-42
2021/01/27 00:32:21;;;;;;;7.25;4.93;;;;;;;-0.55;76.12;92274.53;5050443;28;20029;-43
2021/01/27 00:34:47;;;;;;;6.88;4.13;;;;;;;-0.59;76.30;92281.47;5050306;28;20064;-44
2021/01/27 00:37:12;;;;;;;6.45;3.80;;;;;;;-0.69;76.29;92289.16;5050271;28;20111;-42
2021/01/27 00:39:38;;;;;;;7.72;4.43;;;;;;;-0.78;76.75;92290.22;5050557;28;20053;-43
2021/01/27 00:42:03;;;;;;;8.00;3.55;;;;;;;-0.83;77.05;92292.97;5049135;28;20053;-42
2021/01/27 00:44:29;;;;;;;8.25;3.60;;;;;;;-0.90;76.99;92294.25;5050349;28;20032;-44
2021/01/27 00:46:54;;;;;;;5.88;3.42;;;;;;;-0.90;76.88;92294.25;5050169;28;20518;-43
2021/01/27 00:49:20;;;;;;;7.22;3.88;;;;;;;-0.85;77.54;92293.50;5049952;28;20031;-43
2021/01/27 00:51:45;;;;;;;7.85;3.85;;;;;;;-0.79;76.89;92288.00;5050044;28;20025;-43
2021/01/27 00:54:10;;;;;;;7.20;3.90;;;;;;;-0.86;77.36;92296.69;5050031;28;20477;-42
2021/01/27 00:56:36;;;;;;;5.72;2.80;;;;;;;-0.80;77.07;92286.53;5049916;28;20029;-44
2021/01/27 00:59:02;;;;;;;8.25;3.85;;;;;;;-0.82;77.13;92286.31;5049886;28;20033;-48
2021/01/27 01:01:27;;;;;;;5.70;3.13;;;;;;;-0.81;77.20;92288.53;5048376;28;20032;-44
2021/01/27 01:03:52;;;;;;;3.58;2.72;;;;;;;-0.79;76.92;92279.88;5048707;28;20082;-44
2021/01/27 01:06:18;;;;;;;6.18;3.28;;;;;;;-0.73;76.48;92277.84;5049684;28;20457;-46
2021/01/27 01:08:43;;;;;;;6.45;3.70;;;;;;;-0.69;76.83;92281.03;5049650;28;20485;-42
2021/01/27 01:11:09;;;;;;;6.15;2.67;;;;;;;-0.77;76.42;92277.41;5049697;28;20036;-41
2021/01/27 01:13:34;;;;;;;2.45;1.20;;;;;;;-0.76;76.89;92273.47;5049809;28;20028;-43
2021/01/27 01:16:00;;;;;;;1.60;1.50;;;;;;;-0.89;77.32;92276.03;5049619;28;20021;-41
2021/01/27 01:18:26;;;;;;;4.13;2.10;;;;;;;-0.86;77.26;92272.28;5049852;28;20035;-45
2021/01/27 01:20:52;;;;;;;3.08;2.20;;;;;;;-0.82;76.92;92261.91;5049558;28;20029;-45
2021/01/27 01:23:20;;;;;;;2.35;1.60;;;;;;;-0.89;77.16;92257.78;5049486;28;20025;-45
2021/01/27 01:25:47;;;;;;;1.63;1.50;;;;;;;-0.96;78.05;92254.88;5048352;28;20032;-41
2021/01/27 01:28:13;;;;;;;2.58;1.80;;;;;;;-0.95;78.00;92256.34;5049487;28;20041;-45
2021/01/27 01:30:41;;;;;;;19.38;3.63;;;;;;;-0.92;77.97;92255.34;5049646;28;20029;-46
2021/01/27 01:33:17;;;;;;;8.93;3.80;;;;;;;-0.95;77.88;92246.25;5049396;28;20025;-44
2021/01/27 01:35:43;;;;;;;4.20;2.22;;;;;;;-0.99;77.53;92245.78;5049602;28;20263;-46
2021/01/27 01:38:09;;;;;;;3.85;1.80;;;;;;;-1.13;77.97;92232.59;5049349;28;20653;-47
2021/01/27 01:40:37;;;;;;;5.80;2.55;;;;;;;-1.15;78.09;92241.22;5049117;28;20041;-46
2021/01/27 01:43:22;;;;;;;4.38;2.00;;;;;;;-1.15;77.59;92227.69;5049337;28;20028;-51
2021/01/27 01:45:55;;;;;;;6.45;2.63;;;;;;;-1.16;77.59;92234.34;5049500;28;20029;-48
2021/01/27 01:48:20;;;;;;;3.08;1.77;;;;;;;-1.12;77.78;92236.78;5049299;28;20021;-49
2021/01/27 01:50:49;;;;;;;3.38;1.98;;;;;;;-1.21;78.30;92228.97;5049064;28;20029;-46
2021/01/27 01:53:15;;;;;;;1.48;1.35;;;;;;;-1.23;78.34;92232.16;5049180;28;20033;-46
2021/01/27 01:55:41;;;;;;;1.05;0.95;;;;;;;-1.33;78.82;92232.97;5047768;28;20412;-45
2021/01/27 01:58:07;;;;;;;1.85;1.10;;;;;;;-1.28;78.54;92224.09;5049035;28;20043;-47
2021/01/27 02:00:33;;;;;;;5.72;1.85;;;;;;;-1.16;78.65;92230.91;5049083;28;20112;-45
2021/01/27 02:02:58;;;;;;;4.40;2.55;;;;;;;-1.17;77.84;92229.44;5049029;28;20071;-44
2021/01/27 02:05:25;;;;;;;4.25;2.50;;;;;;;-1.16;77.82;92237.06;5049115;28;20049;-46
2021/01/27 02:07:56;;;;;;;3.08;1.27;;;;;;;-1.28;77.38;92237.63;5047790;28;20085;-46
2021/01/27 02:10:22;;;;;;;0.75;0.70;;;;;;;-1.22;77.67;92228.25;5047544;28;20039;-45
2021/01/27 02:13:09;;;;;;;2.97;1.50;;;;;;;-1.25;77.94;92231.94;5048950;28;20112;-48
2021/01/27 02:15:43;;;;;;;3.92;2.08;;;;;;;-1.23;77.83;92231.44;5048801;28;20029;-50
2021/01/27 02:18:28;;;;;;;3.20;2.10;;;;;;;-1.24;77.74;92240.81;5048185;28;20532;-47
2021/01/27 02:21:05;;;;;;;1.67;1.10;;;;;;;-1.16;76.93;92233.59;5047640;28;20036;-47
2021/01/27 02:23:40;;;;;;;1.48;0.90;;;;;;;-1.21;77.13;92235.09;5048767;28;20032;-48
2021/01/27 02:26:27;;;;;;;1.52;1.00;;;;;;;-1.15;77.03;92237.78;5048618;28;20097;-49
2021/01/27 02:29:24;;;;;;;0.82;0.73;;;;;;;-1.11;76.94;92230.88;5047564;28;20103;-47
2021/01/27 02:32:14;;;;;;;1.13;0.93;;;;;;;-1.11;76.10;92240.97;5048505;28;20119;-44
2021/01/27 02:35:04;;;;;;;0.80;0.80;;;;;;;-1.22;76.60;92243.75;5048675;28;20093;-43
2021/01/27 02:37:44;;;;;;;1.10;0.80;;;;;;;-1.19;76.39;92248.88;5048590;28;20413;-46
2021/01/27 02:40:23;;;;;;;1.27;0.82;;;;;;;-1.22;76.49;92249.16;5048340;28;20053;-46
2021/01/27 02:43:36;;;;;;;1.63;1.23;;;;;;;-1.16;76.46;92249.84;5047305;28;20052;-48
2021/01/27 02:46:07;;;;;;;1.00;0.80;;;;;;;-1.17;76.42;92254.53;5047073;28;20121;-46
2021/01/27 02:48:51;;;;;;;0.75;0.70;;;;;;;-1.23;76.95;92251.13;5047284;28;20558;-48
2021/01/27 02:51:23;;;;;;;1.52;0.70;;;;;;;-1.22;76.63;92260.00;5047080;28;20033;-53
2021/01/27 02:53:55;;;;;;;1.02;0.82;;;;;;;-1.17;76.86;92259.94;5047073;28;20021;-50
2021/01/27 02:56:42;;;;;;;0.57;0.57;;;;;;;-1.18;77.03;92255.03;5046944;28;20025;-51
2021/01/27 02:59:17;;;;;;;1.08;0.80;;;;;;;-1.11;76.64;92260.66;5047056;28;20040;-48
2021/01/27 03:02:04;;;;;;;0.40;0.40;;;;;;;-1.10;75.99;92274.91;5047300;28;20017;-47
2021/01/27 03:04:34;;;;;;;0.30;0.30;;;;;;;-1.01;75.91;92280.03;5047114;28;20029;-48
2021/01/27 03:07:01;;;;;;;1.33;1.20;;;;;;;-1.04;75.64;92281.06;5047098;28;20025;-51
2021/01/27 03:10:07;;;;;;;4.50;2.45;;;;;;;-1.12;76.02;92277.41;5046897;28;20036;-46
2021/01/27 03:12:33;;;;;;;4.68;2.85;;;;;;;-1.13;76.28;92282.09;5052219;28;20047;-45
2021/01/27 03:14:59;;;;;;;4.75;2.70;;;;;;;-1.15;76.43;92268.31;5068962;28;20493;-50
2021/01/27 03:17:27;;;;;;;4.00;2.45;;;;;;;-1.07;76.28;92282.06;5058766;28;20033;-49
2021/01/27 03:19:57;;;;;;;5.60;2.17;;;;;;;-1.07;76.26;92279.34;5046796;28;20092;-45
2021/01/27 03:22:33;;;;;;;2.83;1.83;;;;;;;-1.21;76.30;92281.16;5045292;28;20035;-45
2021/01/27 03:25:04;;;;;;;2.72;2.05;;;;;;;-1.10;76.61;92283.78;5046898;28;20032;-50
2021/01/27 03:27:36;;;;;;;2.88;1.73;;;;;;;-1.08;76.36;92286.72;5046714;28;20028;-47
2021/01/27 03:30:07;;;;;;;2.10;1.75;;;;;;;-1.13;76.59;92284.81;5049288;28;20025;-48
2021/01/27 03:32:44;;;;;;;4.32;2.13;;;;;;;-1.17;77.12;92281.59;5051468;28;20056;-45
2021/01/27 03:35:16;;;;;;;4.95;2.30;;;;;;;-1.11;77.21;92297.84;5051315;28;20029;-46
2021/01/27 03:37:48;;;;;;;6.07;3.10;;;;;;;-1.01;76.57;92302.44;5050016;28;20028;-46
2021/01/27 03:40:16;;;;;;;7.65;2.60;;;;;;;-0.92;75.57;92293.28;5051025;28;20037;-46
2021/01/27 03:43:18;;;;;;;5.50;3.50;;;;;;;-0.83;76.21;92296.44;5051204;28;20033;-47
2021/01/27 03:45:50;;;;;;;6.30;1.88;;;;;;;-0.80;76.28;92297.38;5050019;28;20274;-46
2021/01/27 03:48:38;;;;;;;3.20;2.08;;;;;;;-0.82;75.87;92302.56;5051023;28;20029;-46
2021/01/27 03:51:04;;;;;;;0.75;0.75;;;;;;;-0.98;76.10;92306.13;5049879;28;20509;-48
2021/01/27 03:53:31;;;;;;;0.43;0.43;;;;;;;-0.94;76.24;92312.00;5049758;28;20052;-47
2021/01/27 03:56:14;;;;;;;0.30;0.30;;;;;;;-0.94;76.18;92318.16;5049843;28;20021;-46
2021/01/27 03:58:42;;;;;;;0.35;0.35;;;;;;;-0.88;76.35;92312.69;5049884;28;20033;-50
2021/01/27 04:01:08;;;;;;;0.73;0.55;;;;;;;-0.82;75.91;92321.53;5049736;28;20051;-50
2021/01/27 04:03:34;;;;;;;0.57;0.57;;;;;;;-0.86;76.29;92315.66;5050878;28;20028;-49
2021/01/27 04:06:00;;;;;;;0.40;0.40;;;;;;;-0.86;76.42;92312.94;5049710;28;20120;-46
2021/01/27 04:08:25;;;;;;;0.45;0.45;;;;;;;-0.87;76.64;92308.78;5050741;28;20383;-46
2021/01/27 04:10:51;;;;;;;0.40;0.40;;;;;;;-0.85;75.63;92301.63;5050578;28;20090;-51
2021/01/27 04:13:17;;;;;;;0.75;0.75;;;;;;;-0.99;76.13;92297.25;5050675;28;20112;-51
2021/01/27 04:15:42;;;;;;;0.68;0.32;;;;;;;-0.86;76.10;92313.69;5050733;28;20017;-55
2021/01/27 04:18:08;;;;;;;1.75;1.05;;;;;;;-0.87;75.92;92317.63;5050628;27;20485;-49
2021/01/27 04:20:33;;;;;;;1.90;1.30;;;;;;;-0.86;76.06;92329.94;5050410;28;20017;-49
2021/01/27 04:22:59;;;;;;;1.70;0.88;;;;;;;-0.85;75.56;92325.25;5050695;28;20024;-53
2021/01/27 04:25:25;;;;;;;1.25;0.90;;;;;;;-0.85;75.90;92320.59;5050486;28;20062;-48
2021/01/27 04:27:50;;;;;;;1.63;1.05;;;;;;;-0.77;75.28;92320.75;5050568;28;20123;-51
2021/01/27 04:30:23;;;;;;;0.75;0.60;;;;;;;-0.91;75.75;92319.84;5050394;28;20096;-48
2021/01/27 04:32:49;;;;;;;1.17;0.50;;;;;;;-0.92;75.92;92320.38;5050308;28;20033;-47
2021/01/27 04:35:15;;;;;;;0.70;0.60;;;;;;;-0.88;76.03;92323.53;5050399;28;20515;-46
2021/01/27 04:37:41;;;;;;;1.20;0.60;;;;;;;-0.92;75.83;92323.09;5050291;28;20036;-45
2021/01/27 04:40:14;;;;;;;0.25;0.25;;;;;;;-1.03;76.57;92323.88;5049581;28;20049;-46
2021/01/27 04:42:39;;;;;;;0.60;0.40;;;;;;;-1.00;76.48;92322.91;5050249;28;20593;-45
2021/01/27 04:45:06;;;;;;;0.77;0.50;;;;;;;-0.99;76.54;92318.19;5049093;28;20064;-45
2021/01/27 04:47:40;;;;;;;0.75;0.60;;;;;;;-0.97;76.67;92321.13;5050188;28;20074;-47
2021/01/27 04:50:33;;;;;;;0.43;0.43;;;;;;;-0.94;76.43;92317.44;5050020;28;20052;-44
2021/01/27 04:53:05;;;;;;;0.40;0.40;;;;;;;-0.97;76.23;92311.03;5048941;28;20115;-45
2021/01/27 04:55:49;;;;;;;0.32;0.30;;;;;;;-1.01;76.09;92326.09;5050145;28;20564;-45
2021/01/27 04:58:24;;;;;;;0.38;0.30;;;;;;;-0.98;76.38;92317.72;5049975;28;20036;-44
2021/01/27 05:01:15;;;;;;;0.50;0.50;;;;;;;-0.95;75.99;92327.53;5048854;28;20028;-48
2021/01/27 05:04:16;;;;;;;0.30;0.30;;;;;;;-1.05;76.53;92333.75;5049976;28;20025;-49
2021/01/27 05:06:44;;;;;;;1.63;0.95;;;;;;;-1.07;76.80;92336.22;5057805;28;20029;-47
2021/01/27 05:09:14;;;;;;;5.68;1.83;;;;;;;-1.13;76.94;92333.56;5048696;28;20115;-47
2021/01/27 05:11:44;;;;;;;2.60;1.25;;;;;;;-1.03;76.77;92325.84;5049676;28;20025;-44
2021/01/27 05:14:13;;;;;;;2.38;1.48;;;;;;;-1.16;77.48;92326.41;5048535;28;20048;-50
2021/01/27 05:16:38;;;;;;;10.40;4.05;;;;;;;-1.22;77.35;92325.72;5048515;28;20558;-47
2021/01/27 05:19:06;;;;;;;4.85;2.50;;;;;;;-1.12;77.71;92326.88;5049636;28;20029;-45
2021/01/27 05:21:34;;;;;;;8.55;3.85;;;;;;;-1.18;77.40;92320.78;5047221;28;20097;-45
2021/01/27 05:24:00;;;;;;;8.52;3.15;;;;;;;-1.33;77.69;92304.13;5046762;28;20047;-46
2021/01/27 05:26:44;;;;;;;4.55;2.35;;;;;;;-1.38;78.12;92313.00;5048225;28;20025;-49
2021/01/27 05:29:35;;;;;;;3.65;1.98;;;;;;;-1.26;78.25;92321.81;5047214;28;20495;-45
2021/01/27 05:32:10;;;;;;;6.75;2.50;;;;;;;-1.35;78.52;92324.78;5043048;28;20114;-48
2021/01/27 05:34:40;;;;;;;1.73;1.38;;;;;;;-1.43;78.53;92331.97;5048568;28;20025;-46
2021/01/27 05:37:09;;;;;;;3.40;2.08;;;;;;;-1.58;78.84;92332.25;5048505;28;20025;-54
2021/01/27 05:39:35;;;;;;;5.53;2.67;;;;;;;-1.51;79.12;92342.56;5046949;28;20171;-50
2021/01/27 05:42:18;;;;;;;9.88;4.60;;;;;;;-1.52;79.20;92348.50;5048126;28;20033;-53
2021/01/27 05:44:43;;;;;;;8.70;3.97;;;;;;;-1.58;79.12;92348.50;5037710;28;20059;-52
2021/01/27 05:47:38;;;;;;;8.15;5.28;;;;;;;-1.64;79.41;92362.06;5037224;28;20488;-49
2021/01/27 05:50:34;;;;;;;5.40;3.08;;;;;;;-1.66;79.21;92364.53;5045764;28;20037;-48
2021/01/27 05:53:17;;;;;;;3.85;2.90;;;;;;;-1.76;79.27;92357.94;5024408;28;20089;-50
2021/01/27 05:56:05;;;;;;;4.95;3.63;;;;;;;-1.84;79.53;92367.06;5046407;28;20033;-49
2021/01/27 05:58:40;;;;;;;4.10;2.78;;;;;;;-2.02;80.36;92360.19;5045517;28;20040;-48
2021/01/27 06:01:13;;;;;;;3.35;2.55;;;;;;;-2.12;80.73;92367.09;5046499;28;20049;-51
2021/01/27 06:03:38;;;;;;;3.92;2.72;;;;;;;-2.32;81.05;92375.47;5045538;28;20039;-49
2021/01/27 06:06:11;;;;;;;6.18;3.00;;;;;;;-2.29;80.65;92369.06;5045805;28;20025;-53
2021/01/27 06:08:47;;;;;;;10.50;4.63;;;;;;;-2.31;80.58;92372.28;5046370;28;20489;-51
2021/01/27 06:11:13;;;;;;;6.25;4.03;;;;;;;-2.32;80.60;92372.78;5045150;28;20454;-48
2021/01/27 06:13:38;;;;;;;13.50;5.75;;;;;;;-2.32;79.96;92380.88;5046363;28;20029;-50
2021/01/27 06:16:17;;;;;;;30.00;10.65;;;;;;;-2.21;80.29;92390.94;5038866;28;20040;-49
2021/01/27 06:18:42;;;;;;;22.00;8.80;;;;;;;-2.19;79.11;92388.50;5026781;28;20701;-51
2021/01/27 06:21:29;;;;;;;7.93;4.43;;;;;;;-2.32;78.78;92397.81;5026253;28;20100;-54
2021/01/27 06:24:12;;;;;;;18.80;7.53;;;;;;;-2.36;80.33;92391.22;5026418;28;20082;-55
2021/01/27 06:26:50;;;;;;;17.67;7.88;;;;;;;-2.33;79.50;92393.66;5026430;28;20041;-52
2021/01/27 06:29:21;;;;;;;12.38;6.00;;;;;;;-2.42;79.46;92387.75;5026830;28;20029;-54
2021/01/27 06:31:53;;;;;;;13.80;6.55;;;;;;;-2.39;78.95;92389.47;5025943;28;20025;-53
2021/01/27 06:34:19;;;;;;;9.20;5.90;;;;;;;-2.41;78.71;92400.78;5024811;28;20038;-51
2021/01/27 06:36:47;;;;;;;12.38;6.53;;;;;;;-2.37;79.21;92392.41;5026108;28;20022;-52
2021/01/27 06:39:15;;;;;;;7.07;4.50;;;;;;;-2.19;78.06;92383.09;5025949;28;20064;-52
2021/01/27 06:42:12;;;;;;;7.72;4.47;;;;;;;-2.07;77.17;92376.41;5026546;28;20075;-54
2021/01/27 06:44:52;;;;;;;6.03;3.85;;;;;;;-2.11;76.14;92363.16;5025208;28;20049;-52
2021/01/27 06:47:24;;;;;;;13.32;6.22;;;;;;;-2.09;76.73;92363.41;5026398;28;20029;-52
2021/01/27 06:50:03;;;;;;;15.80;6.00;;;;;;;-2.07;76.81;92363.63;5026081;28;20038;-52
2021/01/27 06:52:50;;;;;;;9.57;6.00;;;;;;;-2.00;76.47;92362.41;5026371;28;20025;-53
2021/01/27 06:55:22;;;;;;;7.82;4.93;;;;;;;-2.01;76.21;92361.66;5025779;28;20536;-54
2021/01/27 06:57:57;;;;;;;7.78;4.65;;;;;;;-2.03;75.36;92374.94;5024853;28;20033;-49
2021/01/27 07:00:44;;;;;;;7.55;4.95;;;;;;;-2.08;75.49;92388.47;5025816;28;20032;-54
2021/01/27 07:03:34;;;;;;;8.63;4.80;;;;;;;-2.08;76.15;92385.78;5037022;28;20102;-48
2021/01/27 07:06:21;;;;;;;7.88;4.30;;;;;;;-2.12;75.93;92364.38;5038918;28;20437;-50
2021/01/27 07:09:10;;;;;;;11.20;5.15;;;;;;;-2.16;76.61;92369.31;5050041;28;20036;-49
2021/01/27 07:11:56;;;;;;;8.93;5.10;;;;;;;-2.28;77.01;92369.81;5049085;28;20029;-52
2021/01/27 07:14:52;;;;;;;10.20;4.65;;;;;;;-2.20;76.96;92366.13;5050852;28;20025;-53
2021/01/27 07:17:58;;;;;;;7.45;4.78;;;;;;;-2.10;76.54;92391.66;5039044;28;20041;-48
2021/01/27 07:20:35;;;;;;;6.70;4.35;;;;;;;-1.90;76.26;92404.91;5049035;28;20025;-50
2021/01/27 07:23:18;;;;;;;6.65;4.78;;;;;;;-1.87;74.83;92406.66;5050157;28;20071;-49
2021/01/27 07:26:26;;;;;;;11.20;6.20;;;;;;;-1.82;74.74;92397.75;5050404;28;20024;-53
2021/01/27 07:29:02;;;;;;;12.15;7.18;;;;;;;-1.72;74.74;92400.94;4969271;28;20191;-50
2021/01/27 07:31:32;;;;;;;14.65;7.43;;;;;;;-1.77;74.88;92410.56;5035400;28;20106;-47
2021/01/27 07:34:00;;;;;;;11.85;6.78;;;;;;;-1.72;74.69;92415.22;5039870;28;20026;-53
2021/01/27 07:36:32;;;;;;;10.18;5.70;;;;;;;-1.73;74.80;92411.03;5030886;28;20582;-51
2021/01/27 07:39:01;;;;;;;10.15;6.18;;;;;;;-1.59;74.58;92404.63;5030150;28;20082;-48
2021/01/27 07:41:32;;;;;;;16.73;7.80;;;;;;;-1.57;74.28;92406.81;5030267;28;20069;-49
2021/01/27 07:44:06;;;;;;;10.80;6.43;;;;;;;-1.51;74.92;92404.81;5028632;28;20344;-46
2021/01/27 07:46:37;;;;;;;9.35;6.40;;;;;;;-1.42;74.80;92418.09;5029080;28;20576;-48
2021/01/27 07:49:05;;;;;;;12.88;6.32;;;;;;;-1.43;74.11;92403.09;5028407;28;20026;-45
2021/01/27 07:51:38;;;;;;;19.75;9.07;;;;;;;-1.47;74.22;92407.28;5030153;28;20055;-46
2021/01/27 07:54:06;;;;;;;8.10;5.55;;;;;;;-1.37;74.00;92406.53;5029020;28;20161;-45
2021/01/27 07:56:36;;;;;;;13.13;6.65;;;;;;;-1.39;73.69;92408.25;5029976;28;20588;-47
2021/01/27 07:59:19;;;;;;;9.13;5.18;;;;;;;-1.33;73.74;92411.66;5028727;28;20043;-46
2021/01/27 08:01:48;;;;;;;9.20;4.68;;;;;;;-1.43;73.48;92419.34;5028553;28;20509;-49
2021/01/27 08:04:46;;;;;;;11.00;4.75;;;;;;;-1.24;73.14;92424.94;5029738;28;20030;-45
2021/01/27 08:07:32;;;;;;;8.05;4.55;;;;;;;-1.12;72.94;92427.09;5028709;28;20029;-45
2021/01/27 08:10:13;;;;;;;9.68;4.72;;;;;;;-0.95;72.36;92413.47;5029722;28;20029;-46
2021/01/27 08:12:38;;;;;;;9.27;6.25;;;;;;;-0.98;71.82;92401.69;5029724;28;20532;-49
2021/01/27 08:15:07;;;;;;;9.88;6.45;;;;;;;-0.94;71.35;92396.00;5028708;28;20037;-47
2021/01/27 08:18:18;;;;;;;8.23;6.03;;;;;;;-0.84;70.27;92391.75;5029585;28;20445;-47
2021/01/27 08:20:45;;;;;;;7.35;5.40;;;;;;;-0.90;70.48;92394.50;5023124;28;20037;-46
2021/01/27 08:23:19;;;;;;;11.95;6.03;;;;;;;-0.88;70.28;92397.44;5029607;28;20033;-47
2021/01/27 08:25:51;;;;;;;7.80;4.18;;;;;;;-0.81;70.05;92402.34;5029695;28;20120;-47
2021/01/27 08:28:39;;;;;;;8.60;4.93;;;;;;;-0.71;70.04;92396.63;5034257;28;20164;-39
2021/01/27 08:31:07;;;;;;;8.27;5.03;;;;;;;-0.55;69.64;92398.47;5032954;28;20805;-40
2021/01/27 08:33:48;;;;;;;8.52;5.15;;;;;;;-0.30;67.72;92400.75;5032316;28;20791;-40
2021/01/27 08:36:14;;;;;;;10.75;5.75;;;;;;;-0.18;67.60;92404.88;5045909;28;20040;-38
2021/01/27 08:38:43;;;;;;;6.70;5.15;;;;;;;-0.13;66.58;92406.06;5043782;28;20029;-39
2021/01/27 08:41:30;;;;;;;9.23;4.15;;;;;;;-0.22;67.25;92407.09;5035993;28;20051;-38
2021/01/27 08:43:56;;;;;;;8.90;5.10;;;;;;;-0.29;66.11;92412.34;5037592;28;20025;-38
2021/01/27 08:46:25;;;;;;;4.45;3.72;;;;;;;-0.07;65.78;92417.59;5048931;28;20026;-40
2021/01/27 08:48:52;;;;;;;5.13;3.40;;;;;;;-0.07;65.26;92421.06;5048463;28;20029;-38
2021/01/27 08:51:43;;;;;;;8.23;3.42;;;;;;;0.07;65.05;92423.91;5046796;28;20411;-43
2021/01/27 08:54:24;;;;;;;6.32;3.53;;;;;;;0.20;64.89;92435.63;5045918;28;20041;-44
2021/01/27 08:57:14;;;;;;;7.20;4.28;;;;;;;0.23;62.67;92428.47;5036664;28;20033;-42
2021/01/27 09:00:10;;;;;;;7.68;3.90;;;;;;;0.18;61.79;92431.94;5029751;28;20116;-38
2021/01/27 09:02:41;;;;;;;8.10;4.10;;;;;;;0.42;61.85;92437.41;5028485;28;20125;-44
2021/01/27 09:05:27;;;;;;;5.20;3.75;;;;;;;0.57;62.65;92441.22;5037310;28;20104;-40
2021/01/27 09:07:54;;;;;;;6.00;4.38;;;;;;;0.70;60.98;92437.88;5045786;28;20035;-43
2021/01/27 09:10:31;;;;;;;10.68;5.55;;;;;;;0.77;59.65;92435.34;5031125;28;20033;-45
2021/01/27 09:12:57;;;;;;;11.07;6.00;;;;;;;0.67;61.26;92442.34;5027060;28;20033;-39
2021/01/27 09:15:27;;;;;;;8.85;4.38;;;;;;;0.88;61.19;92450.78;5028680;28;20025;-44
2021/01/27 09:17:55;;;;;;;6.20;3.70;;;;;;;0.89;60.50;92452.22;5028231;28;20790;-46
2021/01/27 09:20:27;;;;;;;7.15;4.43;;;;;;;0.83;61.23;92459.72;5027125;28;20024;-43
2021/01/27 09:23:00;;;;;;;4.68;3.30;;;;;;;0.83;60.92;92457.00;5027438;28;20077;-45
2021/01/27 09:25:27;;;;;;;10.32;4.78;;;;;;;0.92;59.73;92453.19;5028022;28;20504;-40
2021/01/27 09:28:04;;;;;;;8.65;4.90;;;;;;;0.90;60.81;92459.16;5037981;28;20108;-40
2021/01/27 09:30:30;;;;;;;12.05;4.88;;;;;;;0.90;61.04;92474.72;5047857;28;20528;-42
2021/01/27 09:33:12;;;;;;;13.70;6.68;;;;;;;0.66;61.68;92459.88;5047441;28;20025;-57
2021/01/27 09:35:39;;;;;;;11.70;7.32;;;;;;;0.79;62.27;92481.00;5047556;28;20021;-58
2021/01/27 09:38:10;;;;;;;10.45;5.82;;;;;;;0.71;61.95;92478.09;5046936;28;20035;-50
2021/01/27 09:40:46;;;;;;;17.13;8.57;;;;;;;0.82;61.29;92463.69;5046729;28;20470;-59
2021/01/27 09:43:14;;;;;;;13.93;6.95;;;;;;;0.64;61.11;92472.50;5047841;28;20032;-59
2021/01/27 09:45:44;;;;;;;19.05;10.45;;;;;;;0.77;62.79;92481.53;5048185;28;20071;-57
2021/01/27 09:48:11;;;;;;;15.77;7.07;;;;;;;0.84;61.49;92479.47;5034254;28;20272;-62
2021/01/27 09:50:39;;;;;;;14.65;6.95;;;;;;;0.95;62.61;92482.06;5027773;28;20064;-59
2021/01/27 09:53:05;;;;;;;10.65;4.38;;;;;;;0.89;61.24;92468.53;5025476;28;20024;-60
2021/01/27 09:55:31;;;;;;;8.13;4.68;;;;;;;0.89;61.51;92460.38;5027764;28;20029;-60
2021/01/27 09:57:57;;;;;;;9.88;6.15;;;;;;;1.04;60.35;92468.16;5032981;28;20020;-55
2021/01/27 10:00:40;;;;;;;5.72;3.90;;;;;;;1.15;59.56;92476.91;5047171;28;20024;-62
2021/01/27 10:03:31;;;;;;;8.20;4.38;;;;;;;1.16;61.78;92478.38;5047207;28;20062;-55
2021/01/27 10:05:57;;;;;;;8.57;4.95;;;;;;;0.98;60.73;92468.19;5046375;28;20029;-56
2021/01/27 10:08:35;;;;;;;8.50;5.10;;;;;;;0.89;60.33;92460.38;5047404;28;20673;-50
2021/01/27 10:11:07;;;;;;;11.10;5.97;;;;;;;1.02;62.72;92465.91;5046296;28;20021;-59
2021/01/27 10:13:34;;;;;;;6.80;4.70;;;;;;;1.17;61.61;92468.97;5047529;28;20032;-57
2021/01/27 10:16:07;;;;;;;9.52;5.45;;;;;;;1.32;60.22;92458.41;5032774;28;20029;-52
2021/01/27 10:18:33;;;;;;;7.30;4.78;;;;;;;1.42;59.95;92447.91;5046884;28;20036;-49
2021/01/27 10:21:04;;;;;;;7.78;4.38;;;;;;;1.57;58.55;92455.63;5047207;28;20029;-59
2021/01/27 10:23:36;;;;;;;6.20;4.20;;;;;;;1.59;58.34;92461.28;5046796;28;20520;-55
2021/01/27 10:26:33;;;;;;;8.05;4.95;;;;;;;1.59;58.75;92453.13;5046290;28;20025;-57
2021/01/27 10:29:16;;;;;;;8.93;4.80;;;;;;;1.94;58.86;92452.88;5046620;28;20073;-53
2021/01/27 10:31:51;;;;;;;14.70;6.85;;;;;;;2.07;57.71;92452.94;5046442;28;20029;-53
2021/01/27 10:34:36;;;;;;;14.70;6.90;;;;;;;2.12;58.73;92452.13;5046644;28;20056;-58
2021/01/27 10:37:02;;;;;;;16.55;7.18;;;;;;;1.95;57.98;92451.63;5046474;28;20032;-57
2021/01/27 10:39:29;;;;;;;13.02;7.80;;;;;;;2.05;57.00;92450.72;5046828;28;20048;-59
2021/01/27 10:42:04;;;;;;;9.77;5.40;;;;;;;1.81;58.27;92456.28;5028848;28;20057;-56
2021/01/27 10:44:32;;;;;;;14.77;8.07;;;;;;;1.81;58.36;92458.25;5031496;28;20037;-54
2021/01/27 10:47:20;;;;;;;15.63;7.87;;;;;;;2.00;57.92;92461.69;5046887;28;20021;-58
2021/01/27 10:49:47;;;;;;;15.85;7.38;;;;;;;1.96;56.48;92445.66;5129855;28;20023;-54
2021/01/27 10:52:25;;;;;;;15.98;7.32;;;;;;;2.13;58.52;92462.47;5128547;28;20468;-62
2021/01/27 10:54:53;;;;;;;16.05;9.05;;;;;;;2.13;59.05;92469.91;5130868;27;20558;-54
2021/01/27 10:57:19;;;;;;;14.90;6.85;;;;;;;2.10;58.43;92460.06;5129706;28;20027;-64
2021/01/27 10:59:45;;;;;;;12.00;6.40;;;;;;;2.42;56.69;92468.22;5130842;27;20150;-51
2021/01/27 11:02:11;;;;;;;13.45;7.18;;;;;;;2.59;58.07;92447.63;5085233;27;20036;-59
2021/01/27 11:04:37;;;;;;;9.85;6.35;;;;;;;2.45;56.51;92462.47;5046714;28;20028;-60
2021/01/27 11:07:02;;;;;;;8.82;5.82;;;;;;;2.29;57.57;92458.78;5041645;28;20022;-58
2021/01/27 11:09:28;;;;;;;7.88;4.55;;;;;;;2.26;57.70;92437.28;5026749;28;20040;-56
2021/01/27 11:11:53;;;;;;;8.27;4.80;;;;;;;2.18;58.04;92466.38;5032799;28;20025;-53
2021/01/27 11:14:21;;;;;;;10.43;5.45;;;;;;;2.25;58.21;92466.50;5026570;28;20049;-52
2021/01/27 11:16:47;;;;;;;11.27;5.25;;;;;;;2.25;59.50;92466.50;5026530;28;20473;-53
2021/01/27 11:19:13;;;;;;;10.02;5.78;;;;;;;2.35;58.24;92477.75;5026282;28;20129;-60
2021/01/27 11:21:39;;;;;;;14.50;6.72;;;;;;;2.46;57.55;92476.81;5026414;28;20034;-58
2021/01/27 11:24:08;;;;;;;16.98;8.25;;;;;;;2.42;58.02;92468.22;5026232;28;20025;-58
2021/01/27 11:26:35;;;;;;;11.48;5.93;;;;;;;2.37;58.02;92458.88;5046317;28;20029;-59
2021/01/27 11:29:01;;;;;;;24.15;9.60;;;;;;;2.50;58.22;92469.09;5046360;28;20519;-51
2021/01/27 11:31:28;;;;;;;18.60;7.78;;;;;;;2.26;56.79;92453.63;5046141;28;20029;-58
2021/01/27 11:33:54;;;;;;;14.25;7.80;;;;;;;2.23;58.93;92465.56;5044637;28;20558;-58
2021/01/27 11:36:21;;;;;;;12.18;7.10;;;;;;;2.13;58.35;92459.03;5041017;28;20064;-55
2021/01/27 11:38:49;;;;;;;11.38;6.07;;;;;;;2.18;57.97;92453.50;5039790;28;20043;-53
2021/01/27 11:41:15;;;;;;;10.23;5.25;;;;;;;2.00;58.24;92461.69;5045461;28;20448;-51
2021/01/27 11:43:43;;;;;;;12.43;5.18;;;;;;;1.82;58.96;92454.31;5030875;28;20036;-52
2021/01/27 11:46:12;;;;;;;9.98;5.53;;;;;;;1.66;58.93;92442.41;5046296;28;20032;-58
2021/01/27 11:48:38;;;;;;;7.47;4.32;;;;;;;1.83;59.47;92453.03;5046173;28;20096;-51
2021/01/27 11:51:04;;;;;;;15.23;6.30;;;;;;;1.74;59.04;92458.84;5048925;28;20563;-49
2021/01/27 11:53:30;;;;;;;9.45;5.55;;;;;;;1.82;59.27;92448.84;5048014;28;20033;-56
2021/01/27 11:55:56;;;;;;;10.07;6.43;;;;;;;1.72;59.31;92450.47;5041099;28;20033;-54
2021/01/27 11:58:22;;;;;;;10.75;6.85;;;;;;;1.83;60.51;92456.50;5028597;28;20508;-58
2021/01/27 12:00:48;;;;;;;12.52;6.15;;;;;;;1.84;59.42;92457.25;5030074;28;20097;-49